Time;durP1;ratioP1;P1;durP2;ratioP2;P2;SDS_P1;SDS_P2;PMS_P1;PMS_P2;Temp;Humidity;BMP_temperature;BMP_pressure;BME280_temperature;BME280_humidity;BME280_pressure;Samples;Min_cycle;Max_cycle;Signal;HPM_P1;HPM_P2
2022/01/17 00:01:48;;;;;;;10.77;2.70;;;5.60;99.90;;;;;;2167162;66;20172;-73
2022/01/17 00:04:30;;;;;;;12.00;2.72;;;5.60;99.90;;;;;;2166157;66;20280;-73
2022/01/17 00:07:12;;;;;;;12.30;2.97;;;5.60;99.90;;;;;;2153519;66;20786;-72
2022/01/17 00:09:54;;;;;;;16.50;3.28;;;5.70;99.90;;;;;;2152688;66;20261;-73
2022/01/17 00:12:44;;;;;;;15.50;2.92;;;5.80;99.90;;;;;;2137422;66;20246;-73
2022/01/17 00:15:40;;;;;;;12.48;2.85;;;5.60;99.90;;;;;;2132872;67;20312;-74
2022/01/17 00:21:06;;;;;;;11.10;2.92;;;5.70;99.90;;;;;;2142660;66;21050;-72
2022/01/17 00:23:54;;;;;;;9.35;2.55;;;5.60;99.90;;;;;;2125290;67;20224;-72
2022/01/17 00:26:36;;;;;;;14.95;3.30;;;5.70;99.90;;;;;;2126460;67;20271;-72
2022/01/17 00:29:20;;;;;;;10.68;2.67;;;5.70;99.90;;;;;;2116665;67;20236;-73
2022/01/17 00:32:05;;;;;;;;;;;5.70;99.90;;;;;;2110771;67;20741;-72
2022/01/17 00:34:50;;;;;;;15.57;3.00;;;5.70;99.90;;;;;;2100568;67;20790;-73
2022/01/17 00:37:32;;;;;;;17.38;4.18;;;5.70;99.90;;;;;;2111075;67;20793;-72
2022/01/17 00:40:14;;;;;;;13.95;2.88;;;5.70;99.90;;;;;;2117752;67;20189;-73
2022/01/17 00:42:56;;;;;;;13.73;3.35;;;5.70;99.90;;;;;;2111239;67;20177;-71
2022/01/17 00:45:43;;;;;;;11.20;3.22;;;5.60;99.90;;;;;;2103987;67;20190;-72
2022/01/17 00:48:25;;;;;;;14.85;3.55;;;5.60;99.90;;;;;;2111508;67;20540;-74
2022/01/17 00:51:09;;;;;;;12.15;2.58;;;5.50;99.90;;;;;;2112561;67;20177;-73
2022/01/17 00:53:55;;;;;;;15.90;2.90;;;5.90;99.90;;;;;;2123952;67;20323;-74
2022/01/17 00:56:39;;;;;;;;;;;5.50;99.90;;;;;;2116647;67;20279;-72
2022/01/17 00:59:23;;;;;;;9.90;2.60;;;5.40;99.90;;;;;;2104556;67;20065;-73
2022/01/17 01:02:05;;;;;;;12.18;4.00;;;5.40;99.90;;;;;;2102798;68;20210;-73
2022/01/17 01:04:47;;;;;;;17.67;3.03;;;5.30;99.90;;;;;;2110332;67;20185;-73
2022/01/17 01:07:30;;;;;;;11.27;3.40;;;5.30;99.90;;;;;;2115556;67;20385;-73
2022/01/17 01:10:15;;;;;;;11.35;3.65;;;5.30;99.90;;;;;;2117537;67;20712;-72
2022/01/17 01:12:57;;;;;;;11.00;2.05;;;5.30;99.90;;;;;;2103196;67;20253;-73
2022/01/17 01:30:16;;;;;;;9.10;2.97;;;5.40;99.90;;;;;;2141861;66;20735;-72
2022/01/17 01:33:00;;;;;;;10.75;3.03;;;5.40;99.90;;;;;;2139798;66;20427;-73
2022/01/17 01:35:46;;;;;;;18.23;3.13;;;5.40;99.90;;;;;;2143295;66;20249;-73
2022/01/17 01:38:28;;;;;;;14.38;3.00;;;5.40;99.90;;;;;;2144210;66;20332;-72
2022/01/17 01:41:11;;;;;;;18.60;4.35;;;5.40;99.90;;;;;;2133893;67;20724;-73
2022/01/17 01:43:55;;;;;;;7.25;2.33;;;5.40;99.90;;;;;;2128164;67;20902;-72
2022/01/17 01:46:41;;;;;;;10.48;3.10;;;5.40;99.90;;;;;;2122813;67;20320;-73
2022/01/17 01:49:25;;;;;;;13.88;3.47;;;5.30;99.90;;;;;;2111300;67;20189;-73
2022/01/17 01:52:11;;;;;;;10.85;2.90;;;5.40;99.90;;;;;;2123039;67;20233;-73
2022/01/17 01:54:52;;;;;;;14.55;2.78;;;5.40;99.90;;;;;;2131708;67;20327;-73
2022/01/17 01:57:35;;;;;;;14.98;3.78;;;5.30;99.90;;;;;;2129113;67;20569;-74
2022/01/17 02:00:19;;;;;;;13.30;3.00;;;5.30;99.90;;;;;;2140150;66;20266;-73
2022/01/17 02:03:08;;;;;;;14.55;2.97;;;5.20;99.90;;;;;;2141765;66;20183;-72
2022/01/17 02:05:53;;;;;;;16.90;2.97;;;5.20;99.90;;;;;;2132717;67;20221;-72
2022/01/17 02:08:36;;;;;;;11.98;2.83;;;5.20;99.90;;;;;;2134212;67;20401;-73
2022/01/17 02:11:21;;;;;;;9.65;2.95;;;5.10;99.90;;;;;;2133267;67;20276;-72
2022/01/17 02:14:04;;;;;;;13.82;3.60;;;5.10;99.90;;;;;;2133253;67;20231;-73
2022/01/17 02:16:48;;;;;;;12.10;3.58;;;5.10;99.90;;;;;;2144139;66;20195;-73
2022/01/17 02:19:31;;;;;;;19.83;3.20;;;5.10;99.90;;;;;;2143313;66;20276;-73
2022/01/17 02:22:16;;;;;;;15.00;3.50;;;5.10;99.90;;;;;;2141100;67;20253;-73
2022/01/17 02:25:00;;;;;;;12.63;3.33;;;5.00;99.90;;;;;;2139243;67;20283;-72
2022/01/17 02:27:43;;;;;;;14.70;3.50;;;5.00;99.90;;;;;;2122623;67;20700;-73
2022/01/17 02:30:26;;;;;;;14.02;2.50;;;4.90;99.90;;;;;;2137136;67;20240;-72
2022/01/17 02:33:13;;;;;;;10.07;2.75;;;4.90;99.90;;;;;;2136743;67;20246;-73
2022/01/17 02:35:55;;;;;;;18.45;3.28;;;4.90;99.90;;;;;;2124311;67;20294;-73
2022/01/17 02:38:40;;;;;;;15.63;3.08;;;4.90;99.90;;;;;;2145013;66;20283;-72
2022/01/17 02:41:23;;;;;;;13.67;2.97;;;5.00;99.90;;;;;;2145338;66;20225;-73
2022/01/17 02:44:12;;;;;;;9.07;2.20;;;5.10;99.90;;;;;;2132680;67;20235;-74
2022/01/17 02:47:00;;;;;;;10.80;2.75;;;5.20;99.90;;;;;;2119800;67;20191;-73
2022/01/17 02:49:45;;;;;;;9.15;3.15;;;5.20;99.90;;;;;;2127166;67;20816;-74
2022/01/17 02:52:26;;;;;;;12.55;3.15;;;5.30;99.90;;;;;;2138486;67;20326;-73
2022/01/17 02:55:13;;;;;;;12.38;2.60;;;5.40;99.90;;;;;;2142435;66;20224;-74
2022/01/17 02:57:58;;;;;;;12.63;3.15;;;5.40;99.90;;;;;;2147933;66;20193;-72
2022/01/17 03:00:40;;;;;;;17.30;2.88;;;5.40;99.90;;;;;;2145989;66;20178;-73
2022/01/17 03:03:25;;;;;;;7.65;3.22;;;5.40;99.90;;;;;;2138736;67;20212;-74
2022/01/17 03:06:07;;;;;;;12.10;2.55;;;5.40;99.90;;;;;;2123436;67;20260;-74
2022/01/17 03:08:53;;;;;;;12.60;2.78;;;5.40;99.90;;;;;;2122515;67;20258;-73
2022/01/17 03:11:53;;;;;;;10.00;2.83;;;5.40;99.90;;;;;;2114064;67;20371;-73
2022/01/17 03:14:38;;;;;;;10.00;2.88;;;5.50;99.90;;;;;;2114138;67;20368;-73
2022/01/17 03:17:20;;;;;;;13.88;2.85;;;5.50;99.90;;;;;;2111644;67;20326;-73
2022/01/17 03:20:02;;;;;;;13.23;3.13;;;5.50;99.90;;;;;;2115621;67;20197;-72
2022/01/17 03:22:44;;;;;;;15.63;3.35;;;5.50;99.90;;;;;;2114268;67;20198;-74
2022/01/17 03:25:26;;;;;;;14.27;3.45;;;5.50;99.90;;;;;;2111359;67;20236;-73
2022/01/17 03:28:09;;;;;;;10.75;2.55;;;5.60;99.90;;;;;;2124114;67;20302;-73
2022/01/17 03:30:56;;;;;;;15.45;3.45;;;5.60;99.90;;;;;;2123933;67;20210;-72
2022/01/17 03:33:39;;;;;;;17.83;3.75;;;5.70;99.90;;;;;;2107059;67;20669;-73
2022/01/17 03:36:20;;;;;;;16.00;2.85;;;5.60;99.90;;;;;;2106507;67;20443;-74
2022/01/17 03:39:03;;;;;;;12.52;3.58;;;6.00;99.90;;;;;;2112905;67;20170;-73
2022/01/17 03:41:47;;;;;;;14.98;3.35;;;5.60;99.90;;;;;;2122518;67;20255;-72
2022/01/17 03:44:29;;;;;;;15.10;3.40;;;5.70;99.90;;;;;;2104127;68;20886;-72
2022/01/17 03:47:12;;;;;;;10.75;2.30;;;5.70;99.90;;;;;;2096667;68;20343;-72
2022/01/17 03:49:54;;;;;;;12.70;3.65;;;5.70;99.90;;;;;;2103366;68;20953;-74
2022/01/17 03:52:35;;;;;;;15.18;2.95;;;5.70;99.90;;;;;;2104440;67;20327;-72
2022/01/17 03:55:21;;;;;;;13.73;4.00;;;5.70;99.90;;;;;;2106414;67;20211;-73
2022/01/17 03:58:05;;;;;;;12.10;2.40;;;5.70;99.90;;;;;;2110171;67;20368;-74
2022/01/17 04:00:50;;;;;;;13.57;2.45;;;5.70;99.90;;;;;;2105128;67;20339;-73
2022/01/17 04:03:33;;;;;;;9.88;2.83;;;5.60;99.90;;;;;;2113152;67;20278;-73
2022/01/17 04:06:19;;;;;;;11.65;3.53;;;5.60;99.90;;;;;;2120770;67;20251;-73
2022/01/17 04:09:03;;;;;;;14.75;2.83;;;5.60;99.90;;;;;;2119729;67;20261;-72
2022/01/17 04:11:46;;;;;;;8.77;3.00;;;5.60;99.90;;;;;;2111563;67;20215;-73
2022/01/17 04:14:35;;;;;;;14.23;2.83;;;5.60;99.90;;;;;;2130566;67;20163;-73
2022/01/17 04:17:19;;;;;;;12.65;2.25;;;5.60;99.90;;;;;;2131118;67;20267;-74
2022/01/17 04:20:07;;;;;;;13.73;2.85;;;5.60;99.90;;;;;;2131554;67;20268;-72
2022/01/17 04:22:54;;;;;;;11.07;2.67;;;5.70;99.90;;;;;;2110296;67;20185;-73
2022/01/17 04:25:40;;;;;;;13.50;2.30;;;5.70;99.90;;;;;;2101736;68;20376;-74
2022/01/17 04:28:24;;;;;;;10.18;2.47;;;5.80;99.90;;;;;;2117252;67;20168;-72
2022/01/17 04:31:08;;;;;;;7.45;2.22;;;5.80;99.90;;;;;;2119652;67;20737;-73
2022/01/17 04:33:50;;;;;;;10.40;2.63;;;6.20;99.90;;;;;;2124118;67;20202;-73
2022/01/17 04:36:32;;;;;;;12.82;2.70;;;5.90;99.90;;;;;;2117902;67;20435;-74
2022/01/17 04:39:16;;;;;;;10.80;2.25;;;5.90;99.90;;;;;;2110413;67;20313;-73
2022/01/17 04:41:58;;;;;;;8.48;2.40;;;6.00;99.90;;;;;;2102783;68;21217;-74
2022/01/17 04:47:41;;;;;;;14.13;3.13;;;6.00;99.90;;;;;;2119010;67;20303;-74
2022/01/17 04:50:26;;;;;;;10.93;2.42;;;6.10;99.90;;;;;;2124442;67;20734;-73
2022/01/17 04:53:11;;;;;;;13.70;2.60;;;6.10;99.90;;;;;;2129643;67;20282;-73
2022/01/17 04:55:56;;;;;;;5.57;1.85;;;6.10;99.90;;;;;;2127728;67;20451;-73
2022/01/17 04:58:40;;;;;;;13.38;3.25;;;6.20;99.90;;;;;;2144539;66;20696;-72
2022/01/17 05:01:22;;;;;;;14.25;3.55;;;6.10;99.90;;;;;;2139082;66;20427;-74
2022/01/17 05:04:06;;;;;;;15.07;3.35;;;6.20;99.90;;;;;;2129622;67;21090;-71
2022/01/17 05:06:51;;;;;;;12.50;2.47;;;6.20;99.90;;;;;;2118261;67;20319;-72
2022/01/17 05:09:33;;;;;;;11.48;2.70;;;6.20;99.90;;;;;;2132810;67;20242;-73
2022/01/17 05:12:15;;;;;;;17.90;3.60;;;6.20;99.90;;;;;;2125438;67;20219;-73
2022/01/17 05:14:58;;;;;;;12.25;3.03;;;6.20;99.90;;;;;;2123597;67;20319;-74
2022/01/17 05:17:44;;;;;;;19.17;3.55;;;6.20;99.90;;;;;;2124550;67;20205;-72
2022/01/17 05:20:26;;;;;;;17.10;3.63;;;6.30;99.90;;;;;;2132907;67;20339;-72
2022/01/17 05:23:09;;;;;;;13.80;3.40;;;6.30;99.90;;;;;;2125542;67;20172;-75
2022/01/17 05:25:50;;;;;;;15.95;4.00;;;6.30;99.90;;;;;;2126426;67;20208;-72
2022/01/17 05:28:32;;;;;;;9.60;3.38;;;6.30;99.90;;;;;;2140446;66;20406;-73
2022/01/17 05:31:15;;;;;;;15.05;3.35;;;6.30;99.90;;;;;;2136861;67;20184;-72
2022/01/17 05:33:58;;;;;;;16.25;4.22;;;6.30;99.90;;;;;;2134032;67;20232;-73
2022/01/17 05:36:40;;;;;;;14.00;3.38;;;6.40;99.90;;;;;;2141926;66;20403;-74
2022/01/17 05:39:22;;;;;;;10.30;3.60;;;6.40;99.90;;;;;;2139927;66;20322;-73
2022/01/17 05:42:04;;;;;;;13.65;4.00;;;6.40;99.90;;;;;;2146831;66;20251;-73
2022/01/17 05:44:48;;;;;;;9.80;2.92;;;6.40;99.90;;;;;;2127736;67;20263;-73
2022/01/17 05:47:32;;;;;;;15.63;3.78;;;6.40;99.90;;;;;;2121151;67;20221;-74
2022/01/17 05:50:16;;;;;;;14.70;3.65;;;6.40;99.90;;;;;;2119413;67;20371;-73
2022/01/17 05:52:58;;;;;;;16.35;3.55;;;6.40;99.90;;;;;;2102230;67;20255;-73
2022/01/17 05:55:40;;;;;;;16.45;3.92;;;6.50;99.90;;;;;;2110720;67;20311;-72
2022/01/17 05:58:22;;;;;;;16.42;3.80;;;6.40;99.90;;;;;;2110671;67;20275;-72
2022/01/17 06:01:06;;;;;;;19.20;4.45;;;6.50;99.90;;;;;;2108172;67;20314;-73
2022/01/17 06:03:51;;;;;;;14.98;3.65;;;6.50;99.90;;;;;;2104926;67;20174;-73
2022/01/17 06:06:52;;;;;;;17.42;4.60;;;6.40;99.90;;;;;;2098224;68;20319;-72
2022/01/17 06:09:35;;;;;;;16.67;5.28;;;6.40;99.90;;;;;;2103998;67;20284;-72
2022/01/17 06:12:17;;;;;;;19.45;4.63;;;7.10;99.90;;;;;;2099430;67;20177;-73
2022/01/17 06:14:59;;;;;;;20.27;4.22;;;6.50;99.90;;;;;;2097820;67;20333;-72
2022/01/17 06:17:42;;;;;;;22.45;4.53;;;6.50;99.90;;;;;;2117866;67;20184;-75
2022/01/17 06:20:24;;;;;;;12.77;3.63;;;6.40;99.90;;;;;;2132686;67;20617;-73
2022/01/17 06:23:06;;;;;;;14.38;3.97;;;6.50;99.90;;;;;;2142266;66;20775;-74
2022/01/17 06:25:49;;;;;;;15.77;5.13;;;6.40;99.90;;;;;;2139413;66;20210;-72
2022/01/17 06:28:34;;;;;;;21.95;3.95;;;6.40;99.90;;;;;;2121752;67;20358;-74
2022/01/17 06:31:17;;;;;;;15.55;4.43;;;6.40;99.90;;;;;;2132198;67;20409;-73
2022/01/17 06:34:01;;;;;;;14.20;5.00;;;6.40;99.90;;;;;;2125419;67;20308;-72
2022/01/17 06:36:43;;;;;;;16.65;4.22;;;6.30;99.90;;;;;;2118689;67;20193;-73
2022/01/17 06:39:25;;;;;;;21.70;4.75;;;6.30;99.90;;;;;;2124831;67;20368;-73
2022/01/17 06:42:08;;;;;;;19.33;5.00;;;6.30;99.90;;;;;;2110704;67;20165;-72
2022/01/17 06:44:50;;;;;;;17.67;4.50;;;6.40;99.90;;;;;;2119517;67;21279;-73
2022/01/17 06:47:34;;;;;;;18.90;4.78;;;6.40;99.90;;;;;;2121884;67;20184;-73
2022/01/17 06:50:17;;;;;;;20.75;6.50;;;6.40;99.90;;;;;;2126714;67;20293;-74
2022/01/17 06:53:04;;;;;;;16.65;4.85;;;6.40;99.90;;;;;;2123792;67;20327;-71
2022/01/17 06:55:51;;;;;;;16.08;4.93;;;6.40;99.90;;;;;;2129952;67;20645;-72
2022/01/17 06:58:35;;;;;;;16.50;5.57;;;6.40;99.90;;;;;;2143014;66;20264;-73
2022/01/17 07:01:20;;;;;;;21.00;4.82;;;6.40;99.90;;;;;;2156352;66;20201;-74
2022/01/17 07:04:02;;;;;;;25.08;5.35;;;6.40;99.90;;;;;;2137442;66;20204;-74
2022/01/17 07:06:44;;;;;;;17.25;4.30;;;6.40;99.90;;;;;;2145372;66;20406;-73
2022/01/17 07:09:27;;;;;;;16.17;5.07;;;6.40;99.90;;;;;;2145339;66;20237;-72
2022/01/17 07:12:11;;;;;;;24.65;5.18;;;6.40;99.90;;;;;;2138609;66;20237;-74
2022/01/17 07:14:55;;;;;;;22.15;5.45;;;6.50;99.90;;;;;;2137307;67;20261;-73
2022/01/17 07:17:40;;;;;;;23.33;4.10;;;6.50;99.90;;;;;;2130633;67;20205;-74
2022/01/17 07:20:24;;;;;;;19.75;5.53;;;6.50;99.90;;;;;;2137190;66;20399;-72
2022/01/17 07:23:09;;;;;;;30.40;5.95;;;6.50;99.90;;;;;;2130892;67;20217;-73
2022/01/17 07:25:51;;;;;;;22.67;5.60;;;6.60;99.90;;;;;;2119552;67;20177;-74
2022/01/17 07:28:33;;;;;;;19.25;4.72;;;6.50;99.90;;;;;;2110389;67;20314;-73
2022/01/17 07:31:16;;;;;;;20.60;5.60;;;6.60;99.90;;;;;;2128907;67;20203;-73
2022/01/17 07:33:58;;;;;;;23.90;5.80;;;6.60;99.90;;;;;;2137630;67;20191;-74
2022/01/17 07:36:39;;;;;;;24.60;5.47;;;6.60;99.90;;;;;;2139404;66;20355;-72
2022/01/17 07:39:21;;;;;;;20.38;5.53;;;6.70;99.90;;;;;;2132507;67;21042;-73
2022/01/17 07:42:02;;;;;;;17.77;4.70;;;6.70;99.90;;;;;;2146827;66;20360;-72
2022/01/17 07:44:52;;;;;;;18.85;4.28;;;6.70;99.90;;;;;;2134715;66;20378;-72
2022/01/17 07:50:57;;;;;;;22.10;5.22;;;6.80;99.90;;;;;;2103413;68;20335;-73
2022/01/17 07:53:39;;;;;;;21.13;5.30;;;6.80;99.90;;;;;;2103424;67;20250;-74
2022/01/17 07:56:21;;;;;;;20.23;4.47;;;6.80;99.90;;;;;;2109298;67;20223;-73
2022/01/17 07:59:17;;;;;;;25.30;5.28;;;6.90;99.90;;;;;;2108291;67;20451;-75
2022/01/17 08:02:01;;;;;;;16.88;4.43;;;6.90;99.90;;;;;;2120766;67;20252;-74
2022/01/17 08:04:44;;;;;;;25.95;5.25;;;6.90;99.90;;;;;;2112797;67;20817;-73
2022/01/17 08:07:27;;;;;;;19.05;5.50;;;7.00;99.90;;;;;;2109749;67;20284;-73
2022/01/17 08:10:14;;;;;;;22.52;5.82;;;7.00;99.90;;;;;;2129037;66;20659;-73
2022/01/17 08:12:57;;;;;;;27.27;5.85;;;7.10;99.90;;;;;;2130991;67;20906;-73
2022/01/17 08:15:44;;;;;;;26.05;7.43;;;7.10;99.90;;;;;;2132249;67;20737;-74
2022/01/17 08:18:29;;;;;;;20.35;5.35;;;7.20;99.90;;;;;;2139127;66;20204;-75
2022/01/17 08:21:11;;;;;;;21.95;5.05;;;7.20;99.90;;;;;;2147811;66;20168;-72
2022/01/17 08:23:57;;;;;;;16.67;4.15;;;7.30;99.90;;;;;;2157818;66;20319;-72
2022/01/17 08:26:42;;;;;;;25.67;5.57;;;7.30;99.90;;;;;;2144605;66;20604;-73
2022/01/17 08:29:25;;;;;;;28.23;8.05;;;7.30;99.90;;;;;;2148414;66;20197;-73
2022/01/17 08:32:07;;;;;;;18.67;5.00;;;7.30;99.90;;;;;;2144252;66;20359;-72
2022/01/17 08:34:51;;;;;;;30.77;6.47;;;7.40;99.90;;;;;;2137520;67;20208;-72
2022/01/17 08:37:36;;;;;;;25.23;7.43;;;7.40;99.90;;;;;;2130699;67;20191;-73
2022/01/17 08:40:19;;;;;;;33.53;6.32;;;7.40;99.90;;;;;;2120992;67;20281;-73
2022/01/17 08:43:02;;;;;;;20.02;5.18;;;7.50;99.90;;;;;;2144881;66;21140;-73
2022/01/17 08:45:48;;;;;;;25.92;6.10;;;7.50;99.90;;;;;;2124752;67;20336;-74
2022/01/17 08:48:33;;;;;;;25.75;5.28;;;7.60;99.90;;;;;;2124431;67;20168;-74
2022/01/17 08:51:14;;;;;;;20.83;5.75;;;7.60;99.90;;;;;;2117266;67;20841;-73
2022/01/17 08:53:56;;;;;;;29.10;6.50;;;7.60;99.90;;;;;;2122635;67;20261;-75
2022/01/17 08:56:40;;;;;;;24.55;5.35;;;7.70;99.90;;;;;;2123904;67;20309;-73
2022/01/17 08:59:23;;;;;;;23.35;5.88;;;7.70;99.90;;;;;;2121336;67;20361;-72
2022/01/17 09:02:07;;;;;;;;;;;7.80;99.90;;;;;;2126045;67;20176;-74
2022/01/17 09:04:50;;;;;;;35.85;6.03;;;7.90;99.90;;;;;;2124743;67;20601;-72
2022/01/17 09:07:33;;;;;;;21.70;6.45;;;7.90;99.90;;;;;;2125217;67;20206;-72
2022/01/17 09:10:19;;;;;;;34.63;6.97;;;8.00;99.90;;;;;;2126983;67;20384;-71
2022/01/17 09:13:03;;;;;;;24.83;6.15;;;8.00;99.90;;;;;;2149863;66;20657;-74
2022/01/17 09:15:46;;;;;;;25.92;6.50;;;8.20;99.90;;;;;;2139241;66;20595;-75
2022/01/17 09:18:28;;;;;;;33.28;7.10;;;8.10;99.90;;;;;;2134379;67;20330;-74
2022/01/17 09:21:10;;;;;;;24.38;6.00;;;8.20;99.90;;;;;;2135385;67;20191;-73
2022/01/17 09:23:57;;;;;;;16.50;6.03;;;8.20;99.90;;;;;;2128440;67;20188;-75
2022/01/17 09:26:42;;;;;;;25.73;6.68;;;8.30;99.90;;;;;;2144914;66;20219;-75
2022/01/17 09:29:29;;;;;;;23.13;6.37;;;8.40;99.90;;;;;;2136762;67;20311;-74
2022/01/17 09:32:12;;;;;;;34.72;6.88;;;8.40;99.90;;;;;;2133032;67;20670;-74
2022/01/17 09:34:59;;;;;;;21.75;5.70;;;8.40;99.90;;;;;;2126732;67;20301;-75
2022/01/17 09:37:42;;;;;;;31.70;7.40;;;8.40;99.90;;;;;;2125088;67;20362;-75
2022/01/17 09:40:27;;;;;;;28.05;5.85;;;8.50;99.90;;;;;;2133991;66;20235;-78
2022/01/17 09:43:09;;;;;;;25.17;6.82;;;8.50;99.90;;;;;;2134589;66;20216;-74
2022/01/17 09:45:52;;;;;;;30.92;6.13;;;8.60;99.90;;;;;;2133260;67;20199;-71
2022/01/17 09:49:02;;;;;;;29.52;6.10;;;8.60;99.90;;;;;;2140891;66;20304;-74
2022/01/17 09:54:42;;;;;;;32.23;6.53;;;8.70;99.90;;;;;;2135361;66;20329;-75
2022/01/17 09:57:26;;;;;;;28.58;6.50;;;8.80;99.90;;;;;;2133941;67;20389;-74
2022/01/17 10:00:09;;;;;;;23.20;6.47;;;8.90;99.90;;;;;;2146397;66;20314;-76
2022/01/17 10:02:56;;;;;;;26.48;5.53;;;8.80;99.90;;;;;;2133512;66;20195;-75
2022/01/17 10:05:38;;;;;;;32.17;9.35;;;8.90;99.90;;;;;;2123521;67;20641;-72
2022/01/17 10:08:20;;;;;;;28.13;6.47;;;9.00;99.90;;;;;;2117575;67;20233;-74
2022/01/17 10:11:04;;;;;;;23.58;6.82;;;9.00;99.90;;;;;;2123230;67;20368;-74
2022/01/17 10:13:46;;;;;;;36.10;8.18;;;9.10;99.90;;;;;;2110255;67;20170;-74
2022/01/17 10:16:29;;;;;;;28.23;7.53;;;9.00;99.90;;;;;;2103152;67;20710;-75
2022/01/17 10:19:11;;;;;;;29.92;6.93;;;9.00;99.90;;;;;;2097080;68;20303;-74
2022/01/17 10:21:59;;;;;;;19.35;6.85;;;9.00;99.90;;;;;;2091951;68;20827;-72
2022/01/17 10:24:55;;;;;;;35.00;6.80;;;9.00;99.90;;;;;;2109726;67;20323;-72
2022/01/17 10:31:34;;;;;;;32.67;7.50;;;9.40;99.90;;;;;;2086331;68;20334;-73
2022/01/17 10:37:14;;;;;;;27.00;7.63;;;9.20;99.90;;;;;;2101938;67;20832;-75
2022/01/17 10:40:10;;;;;;;32.45;8.18;;;9.20;99.90;;;;;;2094130;68;20244;-74
2022/01/17 10:42:52;;;;;;;37.92;7.25;;;9.20;99.90;;;;;;2095652;68;20344;-73
2022/01/17 10:45:40;;;;;;;38.83;8.43;;;9.20;99.90;;;;;;2079937;68;20861;-75
2022/01/17 10:48:32;;;;;;;26.60;7.43;;;9.10;99.90;;;;;;2077855;68;20232;-73
2022/01/17 10:51:15;;;;;;;37.47;8.93;;;9.20;99.90;;;;;;2090372;68;20486;-74
2022/01/17 10:53:56;;;;;;;29.98;7.90;;;9.20;99.90;;;;;;2097132;68;20306;-76
2022/01/17 10:57:02;;;;;;;26.52;7.80;;;9.20;99.90;;;;;;2102856;67;20710;-73
2022/01/17 10:59:51;;;;;;;34.42;7.68;;;9.20;99.90;;;;;;2112759;67;20232;-74
2022/01/17 11:02:36;;;;;;;37.53;8.80;;;9.10;99.90;;;;;;2110826;67;20682;-76
2022/01/17 11:05:22;;;;;;;34.45;8.45;;;9.10;99.90;;;;;;2107022;67;20199;-79
2022/01/17 11:08:05;;;;;;;24.92;7.45;;;9.30;99.90;;;;;;2132015;67;20278;-78
2022/01/17 11:10:53;;;;;;;33.85;9.20;;;9.40;99.90;;;;;;2122890;67;20177;-74
2022/01/17 11:13:38;;;;;;;36.60;7.93;;;9.50;99.90;;;;;;2123923;67;20827;-75
2022/01/17 11:16:23;;;;;;;31.63;8.02;;;9.50;99.90;;;;;;2116030;67;20205;-75
2022/01/17 11:20:03;;;;;;;31.35;7.38;;;9.60;99.90;;;;;;2103598;67;20278;-74
2022/01/17 11:22:12;;;;;;;34.13;8.55;;;9.70;99.90;;;;;;2099948;67;20220;-75
2022/01/17 11:24:57;;;;;;;38.30;8.20;;;9.80;99.90;;;;;;2097979;67;20370;-75
2022/01/17 11:27:38;;;;;;;38.80;9.63;;;9.90;99.90;;;;;;2095805;68;20263;-73
2022/01/17 11:30:21;;;;;;;31.50;7.22;;;9.90;99.90;;;;;;2093383;67;20205;-74
2022/01/17 11:33:06;;;;;;;29.27;7.93;;;10.00;99.90;;;;;;2102594;67;20351;-74
2022/01/17 11:35:52;;;;;;;;;;;10.10;99.90;;;;;;2110298;67;20639;-72
2022/01/17 11:38:39;;;;;;;25.95;7.60;;;10.20;99.90;;;;;;2114124;67;20230;-74
2022/01/17 11:41:22;;;;;;;35.85;8.30;;;10.60;99.90;;;;;;2110590;67;20258;-73
2022/01/17 11:44:09;;;;;;;31.65;8.90;;;10.10;99.90;;;;;;2125260;67;20167;-72
2022/01/17 11:46:56;;;;;;;32.15;8.60;;;10.10;99.90;;;;;;2132715;66;20257;-73
2022/01/17 11:49:42;;;;;;;32.78;9.02;;;10.00;99.90;;;;;;2130353;67;20183;-74
2022/01/17 11:52:30;;;;;;;35.90;8.18;;;10.00;99.90;;;;;;2122843;67;20256;-74
2022/01/17 11:55:12;;;;;;;30.33;8.57;;;10.00;99.90;;;;;;2118233;67;20291;-74
2022/01/17 11:58:19;;;;;;;31.70;8.68;;;10.00;99.90;;;;;;2114348;67;20468;-74
2022/01/17 12:01:02;;;;;;;28.40;8.27;;;10.00;99.90;;;;;;2121690;67;20432;-74
2022/01/17 12:03:57;;;;;;;31.85;8.15;;;10.00;99.90;;;;;;2124574;67;20247;-74
2022/01/17 12:06:42;;;;;;;37.28;9.00;;;10.10;99.90;;;;;;2114387;67;20192;-75
2022/01/17 12:09:27;;;;;;;36.78;9.05;;;10.20;99.90;;;;;;2111139;67;20427;-73
2022/01/17 12:12:08;;;;;;;25.85;8.23;;;10.30;99.90;;;;;;2104405;67;20385;-74
2022/01/17 12:15:05;;;;;;;22.60;7.57;;;10.30;99.90;;;;;;2103860;67;20248;-72
2022/01/17 12:17:50;;;;;;;33.67;9.35;;;10.30;99.90;;;;;;2112888;67;20192;-73
2022/01/17 12:20:47;;;;;;;37.50;9.82;;;10.30;99.90;;;;;;2126659;67;20179;-74
2022/01/17 12:23:29;;;;;;;34.30;8.93;;;10.30;99.90;;;;;;2125499;67;20337;-74
2022/01/17 12:26:35;;;;;;;36.67;8.60;;;10.30;99.90;;;;;;2117824;67;20307;-74
2022/01/17 12:29:54;;;;;;;37.60;7.43;;;10.30;99.90;;;;;;2137869;66;20250;-74
2022/01/17 12:32:39;;;;;;;33.13;7.90;;;10.20;99.90;;;;;;2130358;67;20312;-73
2022/01/17 12:35:29;;;;;;;26.33;8.27;;;10.20;99.90;;;;;;2132365;66;20208;-73
2022/01/17 12:38:36;;;;;;;37.38;8.95;;;10.20;99.90;;;;;;2126324;67;20250;-73
2022/01/17 12:41:41;;;;;;;35.55;8.98;;;10.10;99.90;;;;;;2121141;67;20303;-73
2022/01/17 12:44:27;;;;;;;30.58;8.00;;;10.30;99.90;;;;;;2122935;67;20289;-72
2022/01/17 12:47:09;;;;;;;30.55;8.45;;;10.00;99.90;;;;;;2117913;67;20685;-72
2022/01/17 12:49:51;;;;;;;27.65;7.93;;;10.00;99.90;;;;;;2124104;67;20276;-74
2022/01/17 12:52:35;;;;;;;32.70;8.02;;;10.00;99.90;;;;;;2124348;67;20767;-73
2022/01/17 12:55:18;;;;;;;37.05;9.10;;;10.00;99.90;;;;;;2115861;67;20270;-73
2022/01/17 12:58:01;;;;;;;35.75;9.35;;;10.00;99.90;;;;;;2118891;67;20362;-74
2022/01/17 13:00:52;;;;;;;43.58;9.75;;;10.00;99.90;;;;;;2124240;67;20344;-74
2022/01/17 13:03:36;;;;;;;41.88;9.63;;;10.00;99.90;;;;;;2120778;67;20168;-74
2022/01/17 13:06:20;;;;;;;42.58;9.68;;;10.10;99.90;;;;;;2111185;67;20201;-72
2022/01/17 13:09:12;;;;;;;31.40;7.43;;;10.50;99.90;;;;;;2107409;67;20174;-74
2022/01/17 13:11:57;;;;;;;32.85;8.43;;;10.90;99.90;;;;;;2106925;67;20227;-75
2022/01/17 13:14:41;;;;;;;30.08;8.73;;;11.10;99.90;;;;;;2110626;67;20266;-77
2022/01/17 13:17:29;;;;;;;35.28;8.85;;;11.10;99.90;;;;;;2111692;67;20209;-73
2022/01/17 13:20:10;;;;;;;;;;;11.00;99.90;;;;;;2108089;67;20190;-74
2022/01/17 13:23:07;;;;;;;28.80;8.57;;;10.90;99.90;;;;;;2105381;67;20275;-73
2022/01/17 13:26:00;;;;;;;39.50;9.10;;;10.90;99.90;;;;;;2114517;67;20335;-73
2022/01/17 13:28:51;;;;;;;37.55;8.88;;;10.90;99.90;;;;;;2131283;66;20840;-75
2022/01/17 13:31:40;;;;;;;31.00;8.50;;;10.90;99.90;;;;;;2146083;66;20215;-73
2022/01/17 13:34:27;;;;;;;33.22;8.18;;;10.80;99.90;;;;;;2145694;66;20182;-74
2022/01/17 13:37:28;;;;;;;;;;;10.60;99.90;;;;;;2134737;67;20202;-75
2022/01/17 13:40:36;;;;;;;30.70;8.90;;;10.50;99.90;;;;;;2128121;67;20153;-74
2022/01/17 13:43:18;;;;;;;40.40;7.88;;;10.40;99.90;;;;;;2126857;67;20873;-74
2022/01/17 13:46:00;;;;;;;29.83;7.22;;;10.40;99.90;;;;;;2137173;67;20294;-73
2022/01/17 13:48:45;;;;;;;30.42;8.48;;;10.50;99.90;;;;;;2130638;67;20180;-73
2022/01/17 13:51:30;;;;;;;29.65;8.00;;;10.40;99.90;;;;;;2117130;67;20363;-74
2022/01/17 13:54:23;;;;;;;33.38;8.70;;;10.30;99.90;;;;;;2125066;67;20330;-74
2022/01/17 13:57:41;;;;;;;28.52;9.25;;;10.30;99.90;;;;;;2129178;67;20340;-73
2022/01/17 14:00:23;;;;;;;34.33;9.88;;;10.30;99.90;;;;;;2130805;67;20267;-73
2022/01/17 14:03:06;;;;;;;38.42;9.05;;;10.40;99.90;;;;;;2114059;67;20346;-73
2022/01/17 14:05:54;;;;;;;38.40;10.10;;;10.40;99.90;;;;;;2124371;67;20682;-76
2022/01/17 14:08:44;;;;;;;38.43;9.17;;;10.20;99.90;;;;;;2120570;67;20769;-73
2022/01/17 14:11:28;;;;;;;34.47;8.38;;;10.30;99.90;;;;;;2126103;67;20478;-75
2022/01/17 14:14:14;;;;;;;30.17;7.28;;;10.30;99.90;;;;;;2131621;67;20260;-74
2022/01/17 14:16:58;;;;;;;33.53;7.93;;;10.20;99.90;;;;;;2117711;67;20193;-75
2022/01/17 14:19:43;;;;;;;49.92;10.80;;;10.10;99.90;;;;;;2118172;67;20173;-76
2022/01/17 14:22:26;;;;;;;38.67;9.65;;;10.00;99.90;;;;;;2108811;67;20203;-72
2022/01/17 14:25:39;;;;;;;40.05;8.43;;;9.90;99.90;;;;;;2117679;67;20321;-73
2022/01/17 14:28:27;;;;;;;28.73;7.78;;;10.10;99.90;;;;;;2115715;67;20841;-73
2022/01/17 14:31:14;;;;;;;34.15;9.60;;;10.10;99.90;;;;;;2113031;67;20268;-74
2022/01/17 14:34:16;;;;;;;26.77;7.20;;;10.20;99.90;;;;;;2119843;67;20223;-75
2022/01/17 14:37:12;;;;;;;35.03;7.70;;;10.10;99.90;;;;;;2125197;67;20299;-74
2022/01/17 14:39:58;;;;;;;23.67;6.43;;;10.00;99.90;;;;;;2128501;67;20376;-74
2022/01/17 14:42:42;;;;;;;32.80;7.35;;;10.00;99.90;;;;;;2136315;67;20215;-73
2022/01/17 14:45:25;;;;;;;28.17;7.38;;;9.90;99.90;;;;;;2135745;67;20475;-74
2022/01/17 14:48:17;;;;;;;26.23;6.55;;;9.80;99.90;;;;;;2138675;67;20178;-74
2022/01/17 14:51:19;;;;;;;20.45;6.10;;;9.60;99.90;;;;;;2143453;66;20474;-74
2022/01/17 14:54:13;;;;;;;24.77;7.03;;;9.50;99.90;;;;;;2138812;66;20216;-76
2022/01/17 15:00:03;;;;;;;30.55;7.43;;;9.20;99.90;;;;;;2152364;66;20193;-76